Time;durP1;ratioP1;P1;durP2;ratioP2;P2;SDS_P1;SDS_P2;PMS_P1;PMS_P2;Temp;Humidity;BMP_temperature;BMP_pressure;BME280_temperature;BME280_humidity;BME280_pressure;Samples;Min_cycle;Max_cycle;Signal;HPM_P1;HPM_P2
2023/07/09 00:01:17;;;;;;;27.08;16.25;;;;;;;;;;4991164;28;20034;-80
2023/07/09 00:03:43;;;;;;;20.83;16.27;;;;;;;;;;4991325;28;20092;-79
2023/07/09 00:06:09;;;;;;;27.98;16.60;;;;;;;;;;4973958;28;20113;-79
2023/07/09 00:08:35;;;;;;;25.05;15.20;;;;;;;;;;4990028;28;20181;-79
2023/07/09 00:11:01;;;;;;;29.58;16.42;;;;;;;;;;4991099;28;20033;-78
2023/07/09 00:13:27;;;;;;;31.38;16.92;;;;;;;;;;4990821;28;20046;-78
2023/07/09 00:16:01;;;;;;;20.48;15.27;;;;;;;;;;4990827;28;20042;-79
2023/07/09 00:18:28;;;;;;;26.48;15.68;;;;;;;;;;4989710;28;20041;-78
2023/07/09 00:20:54;;;;;;;23.98;13.40;;;;;;;;;;4989660;28;20039;-79
2023/07/09 00:23:21;;;;;;;22.67;14.48;;;;;;;;;;4990847;28;20038;-78
2023/07/09 00:25:47;;;;;;;19.17;13.95;;;;;;;;;;4991024;28;20042;-79
2023/07/09 00:28:14;;;;;;;18.20;13.07;;;;;;;;;;4990881;28;20129;-79
2023/07/09 00:30:40;;;;;;;18.70;12.70;;;;;;;;;;4989715;28;20049;-79
2023/07/09 00:33:09;;;;;;;22.13;13.50;;;;;;;;;;4973686;28;20092;-79
2023/07/09 00:35:35;;;;;;;15.35;12.98;;;;;;;;;;4973985;28;20671;-78
2023/07/09 00:38:02;;;;;;;19.00;12.73;;;;;;;;;;4990855;28;20311;-79
2023/07/09 00:40:28;;;;;;;17.08;13.63;;;;;;;;;;4989722;28;20062;-79
2023/07/09 00:42:54;;;;;;;22.10;12.30;;;;;;;;;;4991080;28;20026;-79
2023/07/09 00:45:22;;;;;;;19.52;12.52;;;;;;;;;;4989553;28;20046;-79
2023/07/09 00:47:49;;;;;;;17.00;12.35;;;;;;;;;;4991068;28;20386;-79
2023/07/09 00:50:27;;;;;;;15.43;12.57;;;;;;;;;;4990800;28;20085;-78
2023/07/09 00:52:54;;;;;;;13.85;11.02;;;;;;;;;;4991490;28;20536;-78
2023/07/09 00:55:26;;;;;;;13.80;11.15;;;;;;;;;;4993586;28;20078;-77
2023/07/09 00:57:56;;;;;;;28.58;14.05;;;;;;;;;;4995569;28;20030;-79
2023/07/09 01:00:22;;;;;;;;;;;;;;;;;;4995309;28;20034;-77
2023/07/09 01:02:48;;;;;;;30.02;14.25;;;;;;;;;;4993484;28;20304;-79
2023/07/09 01:05:16;;;;;;;38.28;15.38;;;;;;;;;;4994408;28;20516;-78
2023/07/09 01:07:45;;;;;;;25.55;13.50;;;;;;;;;;4995033;28;20417;-80
2023/07/09 01:10:15;;;;;;;24.85;13.88;;;;;;;;;;4994670;28;20081;-79
2023/07/09 01:12:41;;;;;;;32.08;12.70;;;;;;;;;;4994579;28;20386;-79
2023/07/09 01:15:08;;;;;;;22.50;12.38;;;;;;;;;;5004067;28;20097;-79
2023/07/09 01:17:34;;;;;;;17.77;12.80;;;;;;;;;;4977591;28;20034;-79
2023/07/09 01:20:00;;;;;;;30.17;14.57;;;;;;;;;;5009577;28;20113;-77
2023/07/09 01:22:28;;;;;;;20.83;12.18;;;;;;;;;;4994811;28;20030;-79
2023/07/09 01:25:02;;;;;;;22.05;12.20;;;;;;;;;;4994053;28;20034;-79
2023/07/09 01:27:34;;;;;;;25.75;12.88;;;;;;;;;;4993844;28;20050;-78
2023/07/09 01:30:00;;;;;;;30.60;13.80;;;;;;;;;;4994313;28;20039;-77
2023/07/09 01:32:28;;;;;;;26.90;13.20;;;;;;;;;;4993619;28;20045;-78
2023/07/09 01:34:55;;;;;;;26.20;15.75;;;;;;;;;;4994134;28;20046;-78
2023/07/09 01:37:23;;;;;;;29.40;17.40;;;;;;;;;;4993783;28;20034;-78
2023/07/09 01:39:49;;;;;;;32.58;17.13;;;;;;;;;;4993832;28;20120;-78
2023/07/09 01:42:17;;;;;;;23.20;13.20;;;;;;;;;;4992356;28;20125;-80
2023/07/09 01:44:43;;;;;;;16.85;10.95;;;;;;;;;;4994086;28;20039;-80
2023/07/09 01:47:10;;;;;;;16.65;10.55;;;;;;;;;;4992627;28;20049;-78
2023/07/09 01:49:36;;;;;;;17.50;10.65;;;;;;;;;;4996294;28;20086;-78
2023/07/09 01:52:02;;;;;;;14.95;9.70;;;;;;;;;;5009028;28;20018;-77
2023/07/09 01:54:29;;;;;;;17.65;9.70;;;;;;;;;;5017893;28;20045;-79
2023/07/09 01:57:04;;;;;;;17.00;10.65;;;;;;;;;;5003456;28;20037;-79
2023/07/09 01:59:32;;;;;;;12.65;9.82;;;;;;;;;;4985466;28;20046;-79
2023/07/09 02:01:58;;;;;;;20.48;11.90;;;;;;;;;;4996304;28;20035;-79
2023/07/09 02:04:27;;;;;;;21.95;12.73;;;;;;;;;;4993209;28;20049;-79
2023/07/09 02:06:53;;;;;;;37.10;15.15;;;;;;;;;;4992046;28;20030;-79
2023/07/09 02:09:19;;;;;;;59.80;17.77;;;;;;;;;;4992078;28;20201;-77
2023/07/09 02:11:45;;;;;;;25.13;12.35;;;;;;;;;;4976072;28;20038;-79
2023/07/09 02:14:11;;;;;;;26.10;12.68;;;;;;;;;;4993246;28;20053;-79
2023/07/09 02:16:41;;;;;;;31.67;14.15;;;;;;;;;;4976151;28;20540;-80
2023/07/09 02:19:08;;;;;;;27.10;12.88;;;;;;;;;;4993558;28;20081;-78
2023/07/09 02:21:34;;;;;;;27.73;11.85;;;;;;;;;;4992030;28;20038;-79
2023/07/09 02:24:02;;;;;;;24.55;11.65;;;;;;;;;;4992292;28;20040;-79
2023/07/09 02:26:28;;;;;;;27.05;11.60;;;;;;;;;;4993250;28;20101;-79
2023/07/09 02:28:54;;;;;;;27.77;11.88;;;;;;;;;;4992894;28;20070;-78
2023/07/09 02:31:20;;;;;;;29.95;11.98;;;;;;;;;;4993593;28;20038;-77
2023/07/09 02:33:46;;;;;;;12.00;9.13;;;;;;;;;;4977246;28;20050;-78
2023/07/09 02:36:13;;;;;;;30.30;10.48;;;;;;;;;;5005856;28;20035;-79
2023/07/09 02:38:38;;;;;;;20.65;10.32;;;;;;;;;;4990252;28;20034;-78
2023/07/09 02:41:04;;;;;;;14.50;9.35;;;;;;;;;;5006254;28;20045;-79
2023/07/09 02:43:31;;;;;;;11.07;9.02;;;;;;;;;;5000632;28;20030;-79
2023/07/09 02:45:57;;;;;;;17.95;9.60;;;;;;;;;;4996242;28;20042;-78
2023/07/09 02:48:23;;;;;;;10.23;9.00;;;;;;;;;;4992649;28;20042;-79
2023/07/09 02:50:49;;;;;;;12.32;9.88;;;;;;;;;;4991484;28;20042;-80
2023/07/09 02:53:15;;;;;;;11.05;9.45;;;;;;;;;;4990911;28;20058;-78
2023/07/09 02:55:41;;;;;;;14.93;9.63;;;;;;;;;;4992641;28;20045;-78
2023/07/09 02:58:07;;;;;;;15.25;9.57;;;;;;;;;;4992348;28;20042;-78
2023/07/09 03:00:33;;;;;;;12.27;9.55;;;;;;;;;;4974675;28;20515;-79
2023/07/09 03:03:00;;;;;;;20.10;11.85;;;;;;;;;;4975078;28;20057;-77
2023/07/09 03:05:26;;;;;;;22.05;11.80;;;;;;;;;;4990832;28;20125;-78
2023/07/09 03:07:52;;;;;;;20.30;12.57;;;;;;;;;;4991998;28;20042;-78
2023/07/09 03:10:18;;;;;;;20.40;11.63;;;;;;;;;;4992038;28;20057;-79
2023/07/09 03:12:45;;;;;;;12.75;11.10;;;;;;;;;;4990882;28;20359;-79
2023/07/09 03:15:11;;;;;;;17.75;10.63;;;;;;;;;;4990933;28;20050;-79
2023/07/09 03:17:37;;;;;;;8.05;7.30;;;;;;;;;;4990698;28;20216;-78
2023/07/09 03:20:05;;;;;;;9.82;7.03;;;;;;;;;;4991207;28;20060;-80
2023/07/09 03:22:31;;;;;;;10.38;6.55;;;;;;;;;;4990425;28;20036;-78
2023/07/09 03:24:57;;;;;;;13.80;7.10;;;;;;;;;;4992227;28;20070;-78
2023/07/09 03:27:23;;;;;;;9.30;7.25;;;;;;;;;;4990203;28;20049;-79
2023/07/09 03:29:49;;;;;;;8.45;6.82;;;;;;;;;;4990566;28;20042;-80
2023/07/09 03:32:15;;;;;;;10.25;7.32;;;;;;;;;;4991329;28;20535;-79
2023/07/09 03:34:41;;;;;;;6.70;6.00;;;;;;;;;;4991150;28;20406;-78
2023/07/09 03:37:07;;;;;;;9.43;6.63;;;;;;;;;;4991302;28;20507;-80
2023/07/09 03:39:33;;;;;;;11.25;8.63;;;;;;;;;;4990140;28;20037;-79
2023/07/09 03:41:59;;;;;;;6.50;6.00;;;;;;;;;;4989968;28;20038;-77
2023/07/09 03:44:25;;;;;;;10.80;8.32;;;;;;;;;;4991024;28;20070;-79
2023/07/09 03:46:51;;;;;;;8.63;6.28;;;;;;;;;;4990254;28;20074;-77
2023/07/09 03:49:17;;;;;;;9.88;6.70;;;;;;;;;;4990246;28;20560;-79
2023/07/09 03:51:44;;;;;;;8.20;7.40;;;;;;;;;;4991666;28;20052;-78
2023/07/09 03:54:10;;;;;;;14.82;7.60;;;;;;;;;;4991180;28;20437;-79
2023/07/09 03:56:37;;;;;;;10.75;6.55;;;;;;;;;;4991299;28;20533;-78
2023/07/09 03:59:03;;;;;;;7.57;5.95;;;;;;;;;;4990157;28;20069;-79
2023/07/09 04:01:30;;;;;;;14.98;7.30;;;;;;;;;;4992173;28;20038;-79
2023/07/09 04:03:56;;;;;;;9.55;7.68;;;;;;;;;;4991985;28;20046;-78
2023/07/09 04:06:22;;;;;;;14.30;7.55;;;;;;;;;;4991349;28;20042;-80
2023/07/09 04:08:49;;;;;;;7.00;6.20;;;;;;;;;;4992830;28;20125;-77
2023/07/09 04:11:15;;;;;;;7.93;5.68;;;;;;;;;;4997007;28;20049;-80
2023/07/09 04:13:42;;;;;;;7.60;5.93;;;;;;;;;;4996940;28;20050;-79
2023/07/09 04:16:08;;;;;;;6.78;6.10;;;;;;;;;;4995173;28;20048;-80
2023/07/09 04:18:35;;;;;;;8.25;6.63;;;;;;;;;;4978332;28;20042;-79
2023/07/09 04:21:01;;;;;;;6.63;5.85;;;;;;;;;;4996271;28;20600;-79
2023/07/09 04:23:27;;;;;;;6.05;5.45;;;;;;;;;;4974609;28;20039;-79
2023/07/09 04:25:53;;;;;;;7.95;6.03;;;;;;;;;;4991522;28;20041;-79
2023/07/09 04:28:21;;;;;;;6.75;5.20;;;;;;;;;;4995104;28;20061;-79
2023/07/09 04:30:50;;;;;;;7.38;5.40;;;;;;;;;;4993981;28;20081;-78
2023/07/09 04:33:20;;;;;;;8.63;4.82;;;;;;;;;;4994886;28;20054;-80
2023/07/09 04:35:46;;;;;;;6.43;4.60;;;;;;;;;;4993568;28;20038;-80
2023/07/09 04:38:13;;;;;;;6.70;4.47;;;;;;;;;;4993590;28;20281;-79
2023/07/09 04:40:38;;;;;;;9.82;4.70;;;;;;;;;;4994815;28;20041;-78
2023/07/09 04:43:04;;;;;;;5.20;4.55;;;;;;;;;;4993594;28;20596;-78
2023/07/09 04:45:30;;;;;;;7.80;4.30;;;;;;;;;;4996952;28;20069;-79
2023/07/09 04:47:56;;;;;;;5.53;4.38;;;;;;;;;;5017367;28;20098;-79
2023/07/09 04:50:22;;;;;;;6.25;4.53;;;;;;;;;;5010567;28;20047;-80
2023/07/09 04:52:48;;;;;;;5.10;4.70;;;;;;;;;;5003228;28;20069;-80
2023/07/09 04:55:14;;;;;;;6.72;4.40;;;;;;;;;;5002147;28;20046;-79
2023/07/09 04:57:40;;;;;;;5.55;5.00;;;;;;;;;;4995170;28;20034;-78
2023/07/09 05:00:07;;;;;;;6.20;4.47;;;;;;;;;;4993482;28;20042;-79
2023/07/09 05:02:33;;;;;;;6.70;5.05;;;;;;;;;;4994527;28;20042;-79
2023/07/09 05:04:59;;;;;;;5.32;4.55;;;;;;;;;;4994446;28;20042;-80
2023/07/09 05:07:25;;;;;;;6.28;4.70;;;;;;;;;;4993086;28;20125;-78
2023/07/09 05:09:53;;;;;;;7.13;4.60;;;;;;;;;;4993168;28;20519;-78
2023/07/09 05:12:20;;;;;;;6.10;4.90;;;;;;;;;;4994085;28;20045;-81
2023/07/09 05:14:46;;;;;;;4.13;3.63;;;;;;;;;;4993782;28;20190;-80
2023/07/09 05:17:12;;;;;;;4.50;4.10;;;;;;;;;;4993987;28;20079;-79
2023/07/09 05:19:38;;;;;;;4.45;4.10;;;;;;;;;;4994008;28;20125;-80
2023/07/09 05:22:04;;;;;;;5.00;4.13;;;;;;;;;;4992735;28;20043;-79
2023/07/09 05:24:31;;;;;;;5.13;4.72;;;;;;;;;;4992777;28;20443;-80
2023/07/09 05:26:57;;;;;;;6.88;4.40;;;;;;;;;;4992775;28;20045;-80
2023/07/09 05:29:24;;;;;;;4.97;4.00;;;;;;;;;;4994173;28;20127;-80
2023/07/09 05:31:50;;;;;;;6.35;4.53;;;;;;;;;;4994003;28;20085;-79
2023/07/09 05:34:17;;;;;;;5.47;3.95;;;;;;;;;;4993733;28;20108;-81
2023/07/09 05:36:43;;;;;;;4.93;4.53;;;;;;;;;;4992469;28;20042;-78
2023/07/09 05:39:09;;;;;;;5.70;3.88;;;;;;;;;;4992304;28;20061;-79
2023/07/09 05:41:34;;;;;;;5.63;4.22;;;;;;;;;;4993454;28;20413;-79
2023/07/09 05:44:02;;;;;;;4.32;3.97;;;;;;;;;;4992804;28;20401;-80
2023/07/09 05:46:28;;;;;;;8.65;3.80;;;;;;;;;;4997424;28;20081;-79
2023/07/09 05:48:54;;;;;;;8.38;3.85;;;;;;;;;;5002119;28;20042;-79
2023/07/09 05:51:21;;;;;;;5.88;3.80;;;;;;;;;;5004803;28;20235;-81
2023/07/09 05:53:48;;;;;;;4.28;3.35;;;;;;;;;;5002370;28;20057;-80
2023/07/09 05:56:14;;;;;;;5.47;3.67;;;;;;;;;;4996403;28;20400;-80
2023/07/09 05:58:39;;;;;;;3.90;3.60;;;;;;;;;;4993288;28;20256;-80
2023/07/09 06:01:06;;;;;;;7.43;3.53;;;;;;;;;;4993406;28;20027;-80
2023/07/09 06:03:33;;;;;;;4.63;3.58;;;;;;;;;;4993229;28;20181;-79
2023/07/09 06:06:00;;;;;;;5.03;3.53;;;;;;;;;;4992011;28;20042;-80
2023/07/09 06:08:26;;;;;;;4.82;3.50;;;;;;;;;;4993256;28;20039;-81
2023/07/09 06:10:53;;;;;;;3.60;3.35;;;;;;;;;;4993014;28;20042;-81
2023/07/09 06:13:20;;;;;;;3.28;3.08;;;;;;;;;;4992841;28;20088;-81
2023/07/09 06:15:47;;;;;;;3.30;3.10;;;;;;;;;;4993048;28;20034;-80
2023/07/09 06:18:13;;;;;;;3.75;3.40;;;;;;;;;;4996022;28;20035;-81
2023/07/09 06:20:39;;;;;;;9.98;3.85;;;;;;;;;;4993480;28;20122;-82
2023/07/09 06:23:05;;;;;;;4.43;3.45;;;;;;;;;;4991944;28;20038;-80
2023/07/09 06:25:32;;;;;;;3.63;3.30;;;;;;;;;;4991705;28;20112;-80
2023/07/09 06:28:00;;;;;;;3.40;3.10;;;;;;;;;;4993261;28;20062;-81
2023/07/09 06:30:26;;;;;;;5.28;3.50;;;;;;;;;;4993131;28;20076;-80
2023/07/09 06:32:52;;;;;;;2.47;2.30;;;;;;;;;;4975312;28;20050;-80
2023/07/09 06:35:18;;;;;;;3.33;3.03;;;;;;;;;;4993109;28;20120;-80
2023/07/09 06:37:44;;;;;;;3.10;2.90;;;;;;;;;;4991532;28;20053;-80
2023/07/09 06:40:10;;;;;;;3.90;2.80;;;;;;;;;;4992793;28;20073;-81
2023/07/09 06:42:36;;;;;;;8.05;3.30;;;;;;;;;;4991980;28;20037;-80
2023/07/09 06:45:11;;;;;;;2.92;2.72;;;;;;;;;;4991315;28;20043;-79
2023/07/09 06:47:37;;;;;;;7.65;3.10;;;;;;;;;;4992117;28;20042;-80
2023/07/09 06:50:03;;;;;;;5.43;3.05;;;;;;;;;;4991144;28;20042;-81
2023/07/09 06:52:30;;;;;;;3.15;2.85;;;;;;;;;;4990438;28;20054;-80
2023/07/09 06:54:56;;;;;;;3.35;2.92;;;;;;;;;;4992927;28;20050;-80
2023/07/09 06:57:22;;;;;;;4.07;3.17;;;;;;;;;;4992278;28;20436;-80
2023/07/09 06:59:49;;;;;;;3.60;3.13;;;;;;;;;;4992032;28;20050;-80
2023/07/09 07:02:15;;;;;;;4.07;2.97;;;;;;;;;;4992863;28;20094;-80
2023/07/09 07:04:41;;;;;;;3.35;2.80;;;;;;;;;;4992724;28;20042;-80
2023/07/09 07:07:07;;;;;;;4.05;2.92;;;;;;;;;;4991513;28;20121;-81
2023/07/09 07:09:33;;;;;;;3.10;2.90;;;;;;;;;;4991629;28;20203;-80
2023/07/09 07:12:07;;;;;;;3.03;2.78;;;;;;;;;;5150129;27;20653;-80
2023/07/09 07:14:33;;;;;;;2.92;2.72;;;;;;;;;;5127749;28;20180;-79
2023/07/09 07:17:00;;;;;;;3.15;2.90;;;;;;;;;;5129254;28;20058;-81
2023/07/09 07:19:26;;;;;;;2.70;2.60;;;;;;;;;;5129227;27;20039;-81
2023/07/09 07:21:53;;;;;;;2.75;2.65;;;;;;;;;;5127377;28;20031;-81
2023/07/09 07:24:19;;;;;;;2.90;2.70;;;;;;;;;;5129459;27;20038;-81
2023/07/09 07:26:45;;;;;;;4.10;2.83;;;;;;;;;;5129264;28;20031;-80
2023/07/09 07:29:12;;;;;;;3.00;2.72;;;;;;;;;;5110927;28;20031;-81
2023/07/09 07:31:37;;;;;;;4.18;2.83;;;;;;;;;;5130085;28;20043;-79
2023/07/09 07:34:06;;;;;;;7.00;3.10;;;;;;;;;;5131312;27;20084;-80
2023/07/09 07:36:32;;;;;;;3.25;3.00;;;;;;;;;;5110195;28;20080;-81
2023/07/09 07:38:59;;;;;;;3.33;3.13;;;;;;;;;;5128833;28;20134;-80
2023/07/09 07:41:25;;;;;;;3.42;3.20;;;;;;;;;;5139836;27;20019;-80
2023/07/09 07:43:51;;;;;;;3.65;3.35;;;;;;;;;;5131099;28;20036;-80
2023/07/09 07:46:17;;;;;;;4.88;2.75;;;;;;;;;;5118347;28;20039;-81
2023/07/09 07:48:43;;;;;;;3.25;2.95;;;;;;;;;;5119426;28;20044;-80
2023/07/09 07:51:09;;;;;;;3.53;3.22;;;;;;;;;;5114269;28;20040;-81
2023/07/09 07:53:35;;;;;;;5.00;2.75;;;;;;;;;;5108711;28;20070;-81
2023/07/09 07:56:04;;;;;;;3.35;3.00;;;;;;;;;;5106947;28;20032;-79
2023/07/09 07:58:32;;;;;;;2.90;2.78;;;;;;;;;;5106766;28;20107;-81
2023/07/09 08:00:58;;;;;;;3.55;3.05;;;;;;;;;;5106776;28;20514;-81
2023/07/09 08:03:24;;;;;;;4.10;2.83;;;;;;;;;;5106817;28;20051;-81
2023/07/09 08:05:50;;;;;;;4.30;3.10;;;;;;;;;;5108110;28;20510;-80
2023/07/09 08:08:17;;;;;;;3.10;2.90;;;;;;;;;;5106710;28;20139;-81
2023/07/09 08:10:43;;;;;;;7.18;3.30;;;;;;;;;;5088820;28;20039;-81
2023/07/09 08:13:09;;;;;;;3.15;2.70;;;;;;;;;;5106445;28;20040;-82
2023/07/09 08:15:35;;;;;;;3.03;2.78;;;;;;;;;;5107549;28;20028;-80
2023/07/09 08:18:01;;;;;;;3.58;2.97;;;;;;;;;;5108126;28;20036;-79
2023/07/09 08:20:28;;;;;;;3.00;2.70;;;;;;;;;;5106420;28;20122;-80
2023/07/09 08:22:54;;;;;;;5.57;2.90;;;;;;;;;;5095523;28;20048;-82
2023/07/09 08:25:20;;;;;;;2.70;2.50;;;;;;;;;;5092975;28;20047;-80
2023/07/09 08:27:47;;;;;;;4.78;2.80;;;;;;;;;;5093598;28;20054;-81
2023/07/09 08:30:13;;;;;;;3.10;2.80;;;;;;;;;;5076137;28;20048;-81
2023/07/09 08:32:39;;;;;;;2.92;2.63;;;;;;;;;;5093807;28;20040;-80
2023/07/09 08:35:05;;;;;;;2.83;2.63;;;;;;;;;;5094197;28;20039;-81
2023/07/09 08:37:32;;;;;;;3.03;2.83;;;;;;;;;;5093097;28;20032;-81
2023/07/09 08:39:59;;;;;;;5.10;2.80;;;;;;;;;;5093635;28;20134;-81
2023/07/09 08:42:45;;;;;;;4.28;2.72;;;;;;;;;;5092865;28;20040;-80
2023/07/09 08:45:21;;;;;;;2.30;2.20;;;;;;;;;;5093976;28;20040;-81
2023/07/09 08:47:47;;;;;;;3.05;2.85;;;;;;;;;;5093752;28;20081;-81
2023/07/09 08:50:14;;;;;;;4.10;2.42;;;;;;;;;;5092573;28;20040;-81
2023/07/09 08:52:40;;;;;;;3.33;3.03;;;;;;;;;;5093783;28;20267;-80
2023/07/09 08:55:09;;;;;;;3.80;2.90;;;;;;;;;;5094421;28;20084;-81
2023/07/09 08:57:40;;;;;;;3.72;3.25;;;;;;;;;;5095217;28;20050;-78
2023/07/09 09:00:16;;;;;;;3.03;2.72;;;;;;;;;;5098541;28;20502;-81
2023/07/09 09:02:56;;;;;;;3.20;3.00;;;;;;;;;;5102812;28;20036;-79
2023/07/09 09:05:22;;;;;;;2.75;2.65;;;;;;;;;;5097262;28;20039;-82
2023/07/09 09:07:54;;;;;;;3.63;2.50;;;;;;;;;;5092029;28;20528;-82
2023/07/09 09:10:27;;;;;;;2.80;2.60;;;;;;;;;;5091177;28;20056;-80
2023/07/09 09:13:02;;;;;;;3.63;2.40;;;;;;;;;;5091270;28;20032;-80
2023/07/09 09:15:28;;;;;;;3.10;2.80;;;;;;;;;;5091495;28;20064;-82
2023/07/09 09:17:56;;;;;;;2.92;2.60;;;;;;;;;;5092528;28;20036;-82
2023/07/09 09:20:22;;;;;;;3.00;2.70;;;;;;;;;;5092579;28;20061;-79
2023/07/09 09:22:49;;;;;;;3.58;2.53;;;;;;;;;;5090863;28;20039;-79
2023/07/09 09:25:15;;;;;;;6.78;2.70;;;;;;;;;;5057931;28;20044;-80
2023/07/09 09:27:41;;;;;;;7.00;3.10;;;;;;;;;;5091181;28;20036;-80
2023/07/09 09:30:17;;;;;;;5.07;3.20;;;;;;;;;;5092534;28;20044;-80
2023/07/09 09:32:44;;;;;;;3.03;2.80;;;;;;;;;;5091822;28;20039;-81
2023/07/09 09:35:14;;;;;;;4.80;2.78;;;;;;;;;;5092410;28;20085;-80
2023/07/09 09:37:40;;;;;;;2.95;2.58;;;;;;;;;;5092174;28;20051;-81
2023/07/09 09:40:08;;;;;;;2.80;2.60;;;;;;;;;;5090949;28;20514;-79
2023/07/09 09:42:35;;;;;;;2.70;2.50;;;;;;;;;;5090463;28;20064;-81
2023/07/09 09:45:01;;;;;;;2.75;2.58;;;;;;;;;;5090284;28;20043;-81
2023/07/09 09:47:30;;;;;;;3.40;3.05;;;;;;;;;;5091911;28;20040;-81
2023/07/09 09:49:56;;;;;;;3.25;3.00;;;;;;;;;;5091641;28;20266;-81
2023/07/09 09:52:26;;;;;;;2.70;2.50;;;;;;;;;;5090849;28;20035;-77
2023/07/09 09:54:53;;;;;;;2.72;2.53;;;;;;;;;;5073727;28;20059;-81
2023/07/09 09:57:20;;;;;;;2.60;2.40;;;;;;;;;;5057707;28;20040;-81
2023/07/09 09:59:46;;;;;;;3.67;2.70;;;;;;;;;;5092817;28;20032;-80
2023/07/09 10:02:16;;;;;;;2.90;2.70;;;;;;;;;;5090547;28;20027;-81
2023/07/09 10:04:42;;;;;;;;;;;;;;;;;;5091603;28;20032;-80
2023/07/09 10:07:08;;;;;;;3.35;2.80;;;;;;;;;;5094858;28;20338;-81
2023/07/09 10:09:47;;;;;;;2.75;2.58;;;;;;;;;;5091580;28;20039;-82
2023/07/09 10:12:16;;;;;;;2.90;2.47;;;;;;;;;;5091849;28;20507;-83
2023/07/09 10:14:42;;;;;;;2.53;2.37;;;;;;;;;;5091662;28;20028;-80
2023/07/09 10:17:08;;;;;;;3.25;3.05;;;;;;;;;;5091315;28;20064;-81
2023/07/09 10:19:34;;;;;;;2.80;2.50;;;;;;;;;;5091765;28;20410;-80
2023/07/09 10:22:02;;;;;;;4.90;2.83;;;;;;;;;;5090638;28;20032;-80
2023/07/09 10:24:27;;;;;;;3.08;2.70;;;;;;;;;;5091769;28;20047;-82
2023/07/09 10:27:00;;;;;;;2.75;2.55;;;;;;;;;;5091595;28;20032;-80
2023/07/09 10:29:29;;;;;;;2.88;2.67;;;;;;;;;;5091670;28;20036;-80
2023/07/09 10:32:00;;;;;;;2.78;2.63;;;;;;;;;;5091369;28;20044;-80
2023/07/09 10:34:42;;;;;;;2.40;2.30;;;;;;;;;;5091296;28;20035;-80
2023/07/09 10:37:11;;;;;;;2.90;2.70;;;;;;;;;;5114830;28;20044;-81
2023/07/09 10:39:38;;;;;;;4.10;2.88;;;;;;;;;;5113078;28;20040;-81
2023/07/09 10:42:05;;;;;;;3.17;2.67;;;;;;;;;;5111003;28;20039;-79
2023/07/09 10:44:33;;;;;;;3.22;2.53;;;;;;;;;;5090120;28;20043;-81
2023/07/09 10:47:00;;;;;;;2.80;2.60;;;;;;;;;;5093690;28;20039;-82
2023/07/09 10:49:30;;;;;;;3.63;3.30;;;;;;;;;;5092872;28;20039;-81
2023/07/09 10:52:00;;;;;;;2.60;2.50;;;;;;;;;;5093531;28;20047;-82
2023/07/09 10:54:34;;;;;;;2.60;2.45;;;;;;;;;;5093316;28;20036;-81
2023/07/09 10:57:03;;;;;;;2.80;2.60;;;;;;;;;;5093429;28;20039;-82
2023/07/09 10:59:30;;;;;;;2.42;2.33;;;;;;;;;;5092696;28;20028;-81
2023/07/09 11:01:57;;;;;;;2.83;2.60;;;;;;;;;;5092210;28;20036;-80
2023/07/09 11:04:24;;;;;;;2.70;2.50;;;;;;;;;;5091288;28;20078;-79
2023/07/09 11:06:50;;;;;;;3.00;2.28;;;;;;;;;;5091445;28;20147;-80
2023/07/09 11:09:21;;;;;;;2.30;2.20;;;;;;;;;;5092148;28;20024;-81
2023/07/09 11:11:46;;;;;;;;;;;;;;;;;;5094634;28;20537;-81
2023/07/09 11:14:46;;;;;;;2.47;2.28;;;;;;;;;;5094016;28;19919;-81
2023/07/09 11:17:14;;;;;;;2.53;2.38;;;;;;;;;;5057432;28;20043;-83
2023/07/09 11:19:41;;;;;;;2.78;2.58;;;;;;;;;;5090345;28;20040;-81
2023/07/09 11:22:17;;;;;;;7.03;2.80;;;;;;;;;;5072605;28;20032;-80
2023/07/09 11:25:07;;;;;;;4.35;2.58;;;;;;;;;;5091013;28;20518;-80
2023/07/09 11:27:33;;;;;;;7.35;3.45;;;;;;;;;;5082199;28;20040;-81
2023/07/09 11:30:15;;;;;;;2.88;2.53;;;;;;;;;;5071888;28;20044;-81
2023/07/09 11:32:45;;;;;;;9.68;3.22;;;;;;;;;;5072566;28;20029;-80
2023/07/09 11:35:22;;;;;;;3.15;2.85;;;;;;;;;;5090142;28;20134;-81
2023/07/09 11:37:48;;;;;;;5.25;2.50;;;;;;;;;;5090028;28;20047;-79
2023/07/09 11:40:14;;;;;;;2.70;2.33;;;;;;;;;;5088758;28;20533;-81
2023/07/09 11:43:07;;;;;;;2.92;2.70;;;;;;;;;;5090432;28;20043;-81
2023/07/09 11:45:33;;;;;;;2.50;2.40;;;;;;;;;;5087437;28;20043;-81
2023/07/09 11:48:05;;;;;;;3.10;2.80;;;;;;;;;;5089719;28;20043;-79
2023/07/09 11:50:33;;;;;;;2.88;2.75;;;;;;;;;;5090161;28;20092;-81
2023/07/09 11:52:59;;;;;;;5.47;2.90;;;;;;;;;;5088569;28;20046;-80
2023/07/09 11:55:29;;;;;;;2.40;2.30;;;;;;;;;;5089805;28;20032;-81
2023/07/09 11:57:56;;;;;;;4.35;2.80;;;;;;;;;;5091381;28;20517;-82
2023/07/09 12:00:22;;;;;;;2.70;2.50;;;;;;;;;;5094505;28;20031;-82
2023/07/09 12:02:49;;;;;;;2.90;2.70;;;;;;;;;;5093085;28;20043;-81
2023/07/09 12:05:15;;;;;;;2.65;2.47;;;;;;;;;;5094868;28;20028;-80
2023/07/09 12:07:42;;;;;;;4.38;3.03;;;;;;;;;;5095867;28;20032;-80
2023/07/09 12:10:16;;;;;;;2.90;2.70;;;;;;;;;;5103261;28;20044;-80
2023/07/09 12:12:42;;;;;;;2.55;2.42;;;;;;;;;;5102982;28;20048;-80
2023/07/09 12:15:19;;;;;;;4.13;2.80;;;;;;;;;;5093033;28;20044;-81
2023/07/09 12:17:59;;;;;;;3.10;2.80;;;;;;;;;;5094094;28;20131;-80
2023/07/09 12:20:34;;;;;;;3.50;2.92;;;;;;;;;;5075731;28;20054;-80
2023/07/09 12:23:00;;;;;;;4.70;3.05;;;;;;;;;;5092946;28;20093;-78
2023/07/09 12:25:27;;;;;;;3.08;2.88;;;;;;;;;;5092127;28;20031;-81
2023/07/09 12:27:53;;;;;;;4.28;2.70;;;;;;;;;;5075148;28;20040;-80
2023/07/09 12:30:19;;;;;;;2.83;2.63;;;;;;;;;;5093538;28;20044;-82
2023/07/09 12:32:52;;;;;;;2.90;2.80;;;;;;;;;;5093613;28;20093;-79
2023/07/09 12:35:18;;;;;;;2.97;2.75;;;;;;;;;;5093950;28;20032;-80
2023/07/09 12:37:44;;;;;;;3.40;3.10;;;;;;;;;;5093248;28;20039;-81
2023/07/09 12:40:13;;;;;;;3.60;3.25;;;;;;;;;;5093501;28;20039;-79
2023/07/09 12:42:40;;;;;;;4.80;3.67;;;;;;;;;;5093547;28;20043;-78
2023/07/09 12:45:08;;;;;;;5.13;3.42;;;;;;;;;;5093411;28;20032;-80
2023/07/09 12:47:34;;;;;;;4.13;2.90;;;;;;;;;;5092461;28;20032;-80
2023/07/09 12:50:01;;;;;;;3.20;3.00;;;;;;;;;;5092906;28;20040;-80
2023/07/09 12:52:29;;;;;;;3.25;2.67;;;;;;;;;;5100596;28;20039;-80
2023/07/09 12:54:56;;;;;;;3.10;2.90;;;;;;;;;;5083768;28;20030;-80
2023/07/09 12:57:22;;;;;;;3.00;2.80;;;;;;;;;;5100301;28;20040;-81
2023/07/09 12:59:48;;;;;;;3.13;2.92;;;;;;;;;;5094260;28;20034;-80
2023/07/09 13:02:18;;;;;;;3.58;2.92;;;;;;;;;;5074796;28;20103;-80
2023/07/09 13:04:44;;;;;;;3.10;2.90;;;;;;;;;;5093024;28;20040;-80
2023/07/09 13:07:22;;;;;;;3.35;3.13;;;;;;;;;;5092992;28;20039;-82
2023/07/09 13:09:48;;;;;;;5.43;3.33;;;;;;;;;;5092805;28;20127;-80
2023/07/09 13:12:15;;;;;;;4.90;2.63;;;;;;;;;;5092810;28;20047;-80
2023/07/09 13:14:41;;;;;;;2.80;2.45;;;;;;;;;;5092596;28;20039;-81
2023/07/09 13:17:09;;;;;;;2.92;2.70;;;;;;;;;;5091346;28;20040;-81
2023/07/09 13:19:35;;;;;;;3.20;2.28;;;;;;;;;;5091162;28;20454;-81
2023/07/09 13:22:01;;;;;;;4.85;2.70;;;;;;;;;;5091186;28;20038;-80
2023/07/09 13:24:29;;;;;;;2.58;2.38;;;;;;;;;;5092418;28;20060;-80
2023/07/09 13:26:59;;;;;;;2.90;2.60;;;;;;;;;;5092635;28;20044;-80
2023/07/09 13:29:25;;;;;;;3.33;2.90;;;;;;;;;;5089487;28;20052;-79
2023/07/09 13:31:52;;;;;;;5.50;2.83;;;;;;;;;;5117511;28;20059;-81
2023/07/09 13:34:25;;;;;;;2.80;2.60;;;;;;;;;;5111207;28;20040;-81
2023/07/09 13:36:53;;;;;;;4.45;2.83;;;;;;;;;;5091789;28;20061;-81
2023/07/09 13:39:20;;;;;;;11.77;3.40;;;;;;;;;;5099317;28;20043;-80
2023/07/09 13:41:47;;;;;;;4.70;2.63;;;;;;;;;;5091328;28;20039;-80
2023/07/09 13:44:14;;;;;;;4.45;3.38;;;;;;;;;;5073861;28;20380;-80
2023/07/09 13:46:41;;;;;;;10.65;4.00;;;;;;;;;;5074305;28;20070;-80
2023/07/09 13:49:11;;;;;;;6.55;3.72;;;;;;;;;;5073159;28;20499;-79
2023/07/09 13:51:37;;;;;;;4.15;3.60;;;;;;;;;;5073665;28;20046;-81
2023/07/09 13:54:05;;;;;;;4.60;3.22;;;;;;;;;;5090063;28;20020;-79
2023/07/09 13:56:32;;;;;;;4.15;3.33;;;;;;;;;;5090497;28;20036;-80
2023/07/09 13:58:58;;;;;;;8.02;3.47;;;;;;;;;;5091298;28;20116;-79
2023/07/09 14:01:25;;;;;;;4.85;4.45;;;;;;;;;;5091759;28;20081;-80
2023/07/09 14:03:52;;;;;;;6.03;3.67;;;;;;;;;;5090195;28;20462;-80
2023/07/09 14:06:18;;;;;;;2.90;2.70;;;;;;;;;;5090105;28;20035;-80
2023/07/09 14:08:44;;;;;;;7.90;3.10;;;;;;;;;;5091431;28;20032;-79
2023/07/09 14:11:11;;;;;;;3.95;3.65;;;;;;;;;;5090995;28;20056;-80
2023/07/09 14:13:38;;;;;;;3.85;3.03;;;;;;;;;;5091444;28;20139;-80
2023/07/09 14:16:04;;;;;;;6.57;4.40;;;;;;;;;;5091838;28;20028;-79
2023/07/09 14:18:31;;;;;;;5.00;3.08;;;;;;;;;;5095904;28;20039;-80
2023/07/09 14:20:57;;;;;;;6.60;3.15;;;;;;;;;;5095373;28;20036;-80
2023/07/09 14:23:25;;;;;;;3.63;2.75;;;;;;;;;;5094967;28;20039;-81
2023/07/09 14:25:51;;;;;;;2.70;2.50;;;;;;;;;;5095679;28;20059;-80
2023/07/09 14:28:18;;;;;;;2.90;2.70;;;;;;;;;;5091509;28;20032;-81
2023/07/09 14:30:45;;;;;;;4.40;3.50;;;;;;;;;;5090666;28;20482;-82
2023/07/09 14:33:12;;;;;;;5.53;3.45;;;;;;;;;;5073200;28;20032;-80
2023/07/09 14:35:38;;;;;;;5.05;2.83;;;;;;;;;;5072978;28;20028;-81
2023/07/09 14:38:05;;;;;;;3.33;2.85;;;;;;;;;;5091132;28;20070;-81
2023/07/09 14:40:32;;;;;;;3.08;2.88;;;;;;;;;;5057141;28;20032;-80